Arkansas City, Kansas
Current Conditions -  °F | °C
As of 1:54 AM on Thursday 29 Jan 2015 (Local Time) from KWLD Reporting Station
Clear Clear  
Wind Chill: 41°   Ceiling: Unl
Heat Index: 46°   Visibility: 10mi
Dew Point: 30°   Wind: 10mph
Humidity: 54%   Direction: 310°NW
Pressure: 30.07"   Gusts: NA
Location:  37.06°N, 97.04°W
Report Text: KWLD 290754Z AUTO 31009KT 10SM CLR 08/M01 A3007 RMK AO2 SLP179 T00781011
Loading
Personal Weather Stations






























Interactive Weather Map New forecast layout! Learn more

10-Day Weather Forecast

Advertisements
Track Severe Weather on mobile